RUNWAY INFORMATION
Runway Length Width Elevation Displaced
Threshold
Heading | Runway Length Width Elevation Displaced
Threshold
Heading
09 4555 ft 180 ft 7 ft 0 ft 106 | 27 4555 ft 180 ft 13 ft 0 ft 286
14 5920 ft 100 ft 14 ft 0 ft 154 | 32 5920 ft 100 ft 10 ft 0 ft 334

 AIRPORT FREQUENCIES
Type CTAF Name CTAF Frequency 118.1 MHZ

 AIRPORT NEAR NAVIGATION AIDS
Type NDB Name Aitutaki Frequency 320 KHZ

 METAR AND TAF INFORMATION
METAR FOR NCAI
ADDS - METARS form results

(1919 UTC 25 February 2021)
Data provider http://aviationweather.gov/metar/data/
 
METAR text: NCAI 251900Z AUTO 30008KT 260V350 28/24 Q1008
Conditions at: NCAI (AMURI/AITUTAKI I, WS) observed 1900 UTC 25 February 2021
Temperature: 28.0°C (82°F)
Dewpoint: 24.0°C (75°F) [RH = 79%]
Pressure (altimeter): 29.76 inches Hg (1008.0 mb)
Winds: from the WNW (300 degrees) at 9 MPH (8 knots; 4.1 m/s)
Visibility: missing
Ceiling: unknown
Clouds: missing
Weather: no significant weather observed at this time



© 2013 - 2021, FlightSimLog.org - Powered by Virtual Airlines Manager